createdAt,value
2023-03-18T00:00:34.476Z,39.10
2023-03-18T00:03:18.570Z,35.10
2023-03-18T00:05:46.463Z,37.40
2023-03-18T00:08:14.274Z,41.30
2023-03-18T00:10:42.104Z,35.30
2023-03-18T00:13:10.630Z,35.60
2023-03-18T00:15:38.501Z,30.50
2023-03-18T00:18:06.676Z,31.90
2023-03-18T00:20:40.524Z,37.10
2023-03-18T00:23:08.878Z,32.80
2023-03-18T00:25:39.023Z,36.20
2023-03-18T00:28:07.658Z,36.20
2023-03-18T00:30:38.892Z,33.80
2023-03-18T00:33:07.435Z,35.40
2023-03-18T00:35:36.437Z,40.40
2023-03-18T00:38:07.747Z,33.70
2023-03-18T00:40:53.737Z,40.10
2023-03-18T00:43:23.581Z,37.60
2023-03-18T00:45:51.489Z,36.80
2023-03-18T00:48:19.334Z,36.60
2023-03-18T00:50:47.175Z,35.70
2023-03-18T00:53:16.595Z,33.80
2023-03-18T00:55:45.261Z,34.00
2023-03-18T00:58:13.506Z,32.10
2023-03-18T01:00:41.696Z,32.50
2023-03-18T01:03:09.595Z,33.80
2023-03-18T01:05:38.332Z,33.70
2023-03-18T01:08:06.345Z,34.30
2023-03-18T01:10:34.459Z,32.80
2023-03-18T01:13:02.676Z,32.90
2023-03-18T01:15:30.487Z,36.30
2023-03-18T01:17:58.491Z,30.20
2023-03-18T01:20:27.186Z,29.10
2023-03-18T01:22:57.120Z,32.40
2023-03-18T01:25:25.362Z,31.20
2023-03-18T01:27:54.462Z,28.10
2023-03-18T01:30:23.759Z,31.20
2023-03-18T01:32:52.409Z,29.80
2023-03-18T01:35:20.324Z,30.00
2023-03-18T01:37:49.286Z,27.80
2023-03-18T01:40:17.862Z,30.10
2023-03-18T01:42:59.343Z,31.30
2023-03-18T01:45:30.371Z,27.00
2023-03-18T01:48:00.323Z,26.70
2023-03-18T01:50:33.512Z,26.30
2023-03-18T01:53:09.347Z,31.60
2023-03-18T01:55:39.989Z,29.60
2023-03-18T01:58:17.294Z,28.50
2023-03-18T02:00:51.722Z,26.00
2023-03-18T02:03:21.416Z,28.60
2023-03-18T02:05:50.468Z,28.00
2023-03-18T02:08:18.580Z,28.50
2023-03-18T02:10:46.654Z,27.70
2023-03-18T02:13:16.337Z,25.60
2023-03-18T02:15:55.473Z,24.40
2023-03-18T02:18:35.517Z,26.30
2023-03-18T02:21:12.599Z,26.80
2023-03-18T02:23:59.735Z,24.10
2023-03-18T02:27:02.563Z,23.80
2023-03-18T02:29:40.369Z,24.80
2023-03-18T02:32:13.972Z,24.20
2023-03-18T02:34:44.316Z,27.60
2023-03-18T02:37:12.810Z,25.20
2023-03-18T02:39:41.672Z,27.80
2023-03-18T02:42:14.449Z,22.10
2023-03-18T02:44:47.949Z,25.40
2023-03-18T02:47:34.377Z,24.10
2023-03-18T02:50:03.835Z,23.90
2023-03-18T02:52:31.818Z,25.20
2023-03-18T02:55:01.793Z,22.60
2023-03-18T02:57:29.686Z,24.00
2023-03-18T02:59:57.605Z,23.00
2023-03-18T03:02:26.433Z,26.30
2023-03-18T03:04:54.421Z,23.80
2023-03-18T03:07:26.942Z,25.40
2023-03-18T03:09:55.275Z,25.00
2023-03-18T03:12:23.452Z,24.70
2023-03-18T03:14:54.344Z,27.60
2023-03-18T03:17:22.824Z,27.50
2023-03-18T03:19:52.235Z,24.70
2023-03-18T03:22:20.078Z,22.50
2023-03-18T03:24:49.404Z,20.70
2023-03-18T03:27:17.849Z,20.00
2023-03-18T03:29:45.840Z,22.70
2023-03-18T03:32:13.866Z,19.50
2023-03-18T03:34:43.482Z,23.30
2023-03-18T03:37:12.703Z,21.70
2023-03-18T03:39:40.947Z,22.30
2023-03-18T03:42:08.905Z,20.00
2023-03-18T03:44:36.692Z,19.60
2023-03-18T03:47:05.046Z,21.20
2023-03-18T03:49:33.394Z,21.40
2023-03-18T03:52:01.456Z,20.00
2023-03-18T03:54:29.832Z,23.00
2023-03-18T03:56:58.349Z,20.00
2023-03-18T03:59:26.401Z,19.80
2023-03-18T04:02:14.354Z,21.70
2023-03-18T04:04:43.555Z,21.50
2023-03-18T04:07:17.697Z,22.90
2023-03-18T04:09:46.741Z,21.20
2023-03-18T04:12:14.831Z,19.60
2023-03-18T04:14:43.361Z,20.70
2023-03-18T04:17:11.604Z,18.20
2023-03-18T04:19:40.155Z,18.30
2023-03-18T04:22:09.824Z,20.70
2023-03-18T04:24:38.792Z,21.00
2023-03-18T04:27:07.746Z,19.30
2023-03-18T04:29:35.541Z,19.00
2023-03-18T04:32:04.367Z,19.70
2023-03-18T04:34:32.798Z,18.60
2023-03-18T04:37:00.673Z,17.60
2023-03-18T04:39:29.057Z,19.00
2023-03-18T04:41:59.799Z,18.80
2023-03-18T04:44:29.193Z,20.10
2023-03-18T04:46:57.153Z,18.00
2023-03-18T04:49:25.710Z,17.40
2023-03-18T04:51:55.057Z,18.80
2023-03-18T04:54:28.457Z,19.20
2023-03-18T04:56:58.118Z,21.60
2023-03-18T04:59:27.593Z,18.30
2023-03-18T05:01:55.825Z,19.50
2023-03-18T05:04:24.258Z,18.80
2023-03-18T05:06:53.436Z,20.80
2023-03-18T05:09:26.254Z,17.00
2023-03-18T05:11:54.499Z,19.40
2023-03-18T05:14:27.437Z,15.90
2023-03-18T05:16:56.139Z,15.60
2023-03-18T05:19:25.377Z,19.00
2023-03-18T05:22:00.517Z,16.70
2023-03-18T05:24:28.676Z,16.60
2023-03-18T05:26:57.494Z,16.90
2023-03-18T05:29:29.876Z,16.40
2023-03-18T05:32:08.972Z,18.60
2023-03-18T05:34:39.193Z,18.40
2023-03-18T05:37:10.101Z,20.00
2023-03-18T05:39:40.221Z,16.90
2023-03-18T05:42:11.569Z,17.00
2023-03-18T05:44:40.510Z,15.50
2023-03-18T05:47:10.097Z,17.40
2023-03-18T05:49:57.826Z,15.90
2023-03-18T05:52:26.600Z,17.50
2023-03-18T05:54:57.001Z,16.60
2023-03-18T05:57:28.552Z,14.60
2023-03-18T06:00:02.464Z,17.10
2023-03-18T06:02:43.790Z,16.60
2023-03-18T06:05:13.755Z,17.90
2023-03-18T06:07:41.899Z,15.20
2023-03-18T06:10:10.617Z,19.80
2023-03-18T06:12:39.581Z,14.90
2023-03-18T06:15:09.162Z,16.70
2023-03-18T06:17:37.644Z,17.60
2023-03-18T06:20:08.886Z,18.00
2023-03-18T06:22:37.204Z,15.80
2023-03-18T06:25:08.267Z,16.30
2023-03-18T06:27:38.504Z,18.10
2023-03-18T06:30:06.844Z,20.30
2023-03-18T06:32:36.958Z,15.50
2023-03-18T06:35:05.334Z,15.40
2023-03-18T06:37:34.093Z,15.50
2023-03-18T06:40:02.250Z,15.00
2023-03-18T06:42:32.240Z,16.20
2023-03-18T06:45:13.798Z,14.90
2023-03-18T06:47:55.278Z,14.20
2023-03-18T06:50:24.468Z,14.60
2023-03-18T06:52:53.176Z,14.20
2023-03-18T06:55:26.803Z,19.30
2023-03-18T06:57:54.750Z,13.70
2023-03-18T07:00:26.896Z,13.30
2023-03-18T07:02:55.485Z,13.50
2023-03-18T07:05:26.630Z,13.00
2023-03-18T07:07:55.808Z,12.20
2023-03-18T07:10:29.671Z,14.60
2023-03-18T07:13:10.743Z,11.30
2023-03-18T07:15:40.296Z,11.20
2023-03-18T07:18:12.076Z,11.70
2023-03-18T07:20:40.368Z,11.60
2023-03-18T07:23:08.339Z,15.40
2023-03-18T07:25:36.723Z,11.50
2023-03-18T07:28:05.902Z,13.30
2023-03-18T07:30:34.250Z,10.50
2023-03-18T07:33:02.543Z,12.00
2023-03-18T07:35:31.171Z,17.70
2023-03-18T07:37:59.460Z,16.70
2023-03-18T07:40:27.444Z,13.30
2023-03-18T07:42:55.779Z,15.30
2023-03-18T07:45:24.002Z,12.60
2023-03-18T07:47:51.899Z,13.10
2023-03-18T07:50:19.903Z,14.30
2023-03-18T07:52:48.241Z,20.90
2023-03-18T07:55:16.465Z,17.40
2023-03-18T07:57:44.312Z,13.70
2023-03-18T08:00:12.702Z,11.60
2023-03-18T08:02:43.698Z,14.40
2023-03-18T08:05:13.796Z,14.40
2023-03-18T08:07:41.766Z,14.80
2023-03-18T08:10:10.178Z,13.50
2023-03-18T08:12:51.557Z,13.50
2023-03-18T08:15:22.441Z,17.60
2023-03-18T08:17:51.209Z,13.40
2023-03-18T08:20:19.357Z,18.20
2023-03-18T08:22:47.356Z,33.60
2023-03-18T08:25:15.916Z,76.70
2023-03-18T08:27:43.866Z,396.90
2023-03-18T08:30:13.767Z,171.70
2023-03-18T08:32:43.830Z,174.60
2023-03-18T08:35:12.971Z,66.70
2023-03-18T08:37:41.244Z,33.10
2023-03-18T08:40:10.059Z,35.70
2023-03-18T08:42:37.870Z,27.50
2023-03-18T08:45:06.529Z,18.20
2023-03-18T08:47:34.298Z,39.70
2023-03-18T08:50:02.087Z,17.00
2023-03-18T08:52:30.088Z,13.70
2023-03-18T08:54:58.603Z,13.20
2023-03-18T08:57:28.074Z,13.80
2023-03-18T08:59:55.956Z,48.70
2023-03-18T09:02:23.780Z,26.80
2023-03-18T09:04:55.148Z,37.30
2023-03-18T09:07:23.064Z,28.30
2023-03-18T09:09:54.093Z,26.10
2023-03-18T09:12:22.747Z,67.70
2023-03-18T09:14:50.656Z,218.20
2023-03-18T09:17:18.523Z,74.60
2023-03-18T09:19:46.385Z,53.60
2023-03-18T09:22:14.337Z,26.40
2023-03-18T09:24:42.363Z,124.90
2023-03-18T09:27:10.821Z,114.30
2023-03-18T09:29:38.701Z,34.70
2023-03-18T09:32:06.912Z,33.70
2023-03-18T09:34:34.723Z,37.20
2023-03-18T09:37:02.456Z,53.20
2023-03-18T09:39:30.262Z,20.10
2023-03-18T09:42:04.334Z,15.00
2023-03-18T09:44:34.848Z,11.50
2023-03-18T09:47:34.269Z,11.60
2023-03-18T09:50:42.136Z,10.60
2023-03-18T09:53:41.954Z,14.50
2023-03-18T09:56:18.035Z,13.30
2023-03-18T09:58:54.723Z,12.00
2023-03-18T10:01:26.456Z,44.60
2023-03-18T10:04:17.071Z,34.60
2023-03-18T10:06:47.264Z,17.70
2023-03-18T10:09:29.128Z,52.70
2023-03-18T10:12:10.340Z,36.70
2023-03-18T10:14:49.990Z,51.80
2023-03-18T10:17:42.637Z,22.60
2023-03-18T10:20:51.775Z,32.60
2023-03-18T10:23:27.439Z,16.30
2023-03-18T10:26:04.809Z,168.00
2023-03-18T10:28:49.304Z,25.20
2023-03-18T10:31:36.625Z,16.10
2023-03-18T10:34:11.938Z,27.10
2023-03-18T10:37:01.384Z,13.40
2023-03-18T10:39:29.701Z,10.80
2023-03-18T10:42:01.849Z,10.80
2023-03-18T10:44:34.292Z,11.00
2023-03-18T10:47:07.146Z,10.60
2023-03-18T10:49:39.251Z,11.50
2023-03-18T10:52:18.411Z,14.10
2023-03-18T10:54:53.024Z,14.90
2023-03-18T10:57:22.693Z,11.30
2023-03-18T10:59:52.318Z,13.60
2023-03-18T11:02:20.426Z,20.20
2023-03-18T11:04:55.381Z,59.10
2023-03-18T11:07:26.759Z,20.00
2023-03-18T11:09:55.103Z,12.60
2023-03-18T11:12:32.600Z,42.30
2023-03-18T11:15:00.774Z,21.80
2023-03-18T11:17:33.276Z,52.20
2023-03-18T11:20:10.968Z,20.60
2023-03-18T11:22:45.861Z,15.60
2023-03-18T11:25:24.200Z,17.10
2023-03-18T11:28:19.932Z,15.50
2023-03-18T11:30:55.346Z,29.20
2023-03-18T11:33:33.393Z,16.30
2023-03-18T11:36:07.095Z,16.10
2023-03-18T11:38:37.277Z,38.80
2023-03-18T11:41:13.353Z,17.40
2023-03-18T11:44:02.542Z,15.40
2023-03-18T11:46:38.812Z,14.80
2023-03-18T11:49:13.158Z,18.10
2023-03-18T11:51:50.000Z,18.50
2023-03-18T11:54:43.312Z,15.40
2023-03-18T11:57:43.499Z,28.70
2023-03-18T12:00:26.574Z,26.00
2023-03-18T12:03:06.083Z,73.60
2023-03-18T12:05:57.074Z,28.30
2023-03-18T12:08:38.549Z,18.90
2023-03-18T12:11:33.098Z,38.50
2023-03-18T12:14:28.513Z,21.60
2023-03-18T12:19:54.936Z,26.90
2023-03-18T12:22:22.648Z,12.90
2023-03-18T12:25:20.761Z,17.80
2023-03-18T12:28:04.283Z,11.50
2023-03-18T12:30:53.236Z,42.70
2023-03-18T12:33:40.344Z,23.50
2023-03-18T12:36:39.894Z,30.80
2023-03-18T12:39:19.983Z,40.50
2023-03-18T12:41:58.013Z,47.40
2023-03-18T12:45:00.977Z,23.10
2023-03-18T12:47:37.160Z,35.30
2023-03-18T12:50:15.416Z,24.30
2023-03-18T12:52:52.289Z,39.70
2023-03-18T12:55:29.430Z,17.80
2023-03-18T12:58:05.376Z,15.00
2023-03-18T13:03:24.815Z,23.40
2023-03-18T13:05:57.373Z,25.70
2023-03-18T13:09:02.182Z,26.80
2023-03-18T13:12:01.908Z,17.30
2023-03-18T13:14:48.636Z,13.00
2023-03-18T13:17:29.745Z,18.70
2023-03-18T13:20:03.892Z,22.90
2023-03-18T13:22:44.154Z,64.50
2023-03-18T13:25:30.525Z,40.00
2023-03-18T13:28:25.584Z,20.50
2023-03-18T13:30:56.183Z,39.30
2023-03-18T13:33:39.402Z,50.00
2023-03-18T13:36:42.469Z,35.50
2023-03-18T13:39:36.301Z,27.30
2023-03-18T13:42:04.120Z,40.90
2023-03-18T13:44:42.475Z,38.70
2023-03-18T13:47:18.096Z,50.10
2023-03-18T13:49:47.411Z,59.80
2023-03-18T13:52:26.835Z,22.70
2023-03-18T13:55:02.181Z,15.70
2023-03-18T13:57:33.433Z,13.00
2023-03-18T14:00:30.665Z,34.40
2023-03-18T14:03:18.088Z,30.90
2023-03-18T14:05:47.089Z,24.90
2023-03-18T14:08:37.291Z,17.40
2023-03-18T14:11:17.364Z,18.90
2023-03-18T14:14:01.868Z,41.40
2023-03-18T14:16:37.786Z,37.10
2023-03-18T14:19:17.798Z,34.80
2023-03-18T14:21:49.318Z,20.40
2023-03-18T14:24:23.212Z,24.00
2023-03-18T14:27:06.825Z,24.70
2023-03-18T14:29:37.490Z,38.50
2023-03-18T14:32:26.178Z,33.10
2023-03-18T14:34:57.539Z,30.90
2023-03-18T14:37:46.816Z,19.20
2023-03-18T14:40:17.834Z,27.30
2023-03-18T14:42:58.366Z,40.00
2023-03-18T14:45:33.689Z,24.90
2023-03-18T14:48:24.435Z,30.10
2023-03-18T14:50:56.090Z,57.80
2023-03-18T14:53:32.555Z,23.80
2023-03-18T14:56:02.910Z,16.80
2023-03-18T14:58:33.774Z,32.10
2023-03-18T15:01:09.789Z,54.80
2023-03-18T15:03:40.862Z,81.10
2023-03-18T15:06:17.816Z,62.20
2023-03-18T15:08:58.874Z,41.60
2023-03-18T15:11:27.078Z,42.90
2023-03-18T15:14:00.079Z,20.90
2023-03-18T15:16:33.091Z,15.70
2023-03-18T15:19:03.694Z,14.20
2023-03-18T15:21:37.651Z,16.00
2023-03-18T15:24:07.830Z,14.70
2023-03-18T15:26:40.901Z,18.20
2023-03-18T15:29:28.854Z,14.00
2023-03-18T15:32:16.482Z,14.60
2023-03-18T15:34:51.118Z,49.90
2023-03-18T15:37:42.658Z,25.20
2023-03-18T15:40:22.527Z,34.30
2023-03-18T15:42:50.849Z,54.50
2023-03-18T15:45:21.871Z,262.70
2023-03-18T15:47:49.770Z,136.70
2023-03-18T15:50:29.138Z,146.60
2023-03-18T15:53:17.931Z,180.30
2023-03-18T15:55:51.771Z,169.90
2023-03-18T15:58:23.456Z,63.10
2023-03-18T16:00:52.775Z,28.50
2023-03-18T16:03:24.647Z,20.80
2023-03-18T16:05:53.903Z,18.30
2023-03-18T16:08:22.870Z,19.20
2023-03-18T16:10:54.797Z,22.90
2023-03-18T16:13:26.679Z,22.60
2023-03-18T16:15:54.613Z,26.80
2023-03-18T16:18:22.903Z,33.70
2023-03-18T16:20:52.925Z,37.70
2023-03-18T16:23:21.257Z,36.70
2023-03-18T16:25:52.623Z,38.60
2023-03-18T16:28:25.898Z,37.60
2023-03-18T16:30:56.362Z,34.50
2023-03-18T16:33:24.998Z,36.50
2023-03-18T16:36:00.402Z,39.80
2023-03-18T16:38:31.255Z,70.90
2023-03-18T16:40:59.163Z,64.50
2023-03-18T16:43:30.397Z,59.70
2023-03-18T16:46:04.239Z,72.30
2023-03-18T16:48:32.641Z,88.30
2023-03-18T16:51:02.794Z,71.80
2023-03-18T16:53:31.700Z,88.80
2023-03-18T16:56:21.975Z,145.60
2023-03-18T16:58:51.407Z,169.60
2023-03-18T17:01:19.599Z,142.00
2023-03-18T17:03:48.136Z,166.60
2023-03-18T17:06:16.275Z,132.90
2023-03-18T17:08:44.120Z,119.50
2023-03-18T17:11:18.405Z,122.00
2023-03-18T17:13:47.340Z,117.10
2023-03-18T17:16:20.200Z,46.60
2023-03-18T17:18:48.241Z,42.60
2023-03-18T17:21:17.090Z,33.60
2023-03-18T17:23:45.776Z,43.00
2023-03-18T17:26:17.093Z,66.70
2023-03-18T17:28:49.333Z,86.20
2023-03-18T17:31:17.502Z,71.80
2023-03-18T17:33:45.458Z,62.50
2023-03-18T17:36:13.289Z,64.50
2023-03-18T17:38:41.188Z,63.70
2023-03-18T17:41:19.357Z,88.80
2023-03-18T17:43:47.408Z,90.90
2023-03-18T17:46:15.257Z,149.60
2023-03-18T17:48:43.850Z,228.30
2023-03-18T17:51:17.409Z,151.50
2023-03-18T17:53:53.227Z,136.00
2023-03-18T17:56:21.057Z,153.10
2023-03-18T17:58:51.561Z,223.40
2023-03-18T18:01:29.296Z,193.40
2023-03-18T18:03:58.861Z,183.60
2023-03-18T18:06:32.140Z,254.10
2023-03-18T18:09:01.178Z,138.90
2023-03-18T18:11:32.281Z,125.40
2023-03-18T18:14:11.197Z,78.60
2023-03-18T18:16:38.998Z,61.70
2023-03-18T18:19:07.803Z,67.00
2023-03-18T18:21:35.632Z,71.00
2023-03-18T18:24:04.491Z,54.80
2023-03-18T18:26:32.420Z,60.60
2023-03-18T18:29:00.415Z,89.20
2023-03-18T18:31:28.907Z,87.20
2023-03-18T18:33:56.829Z,108.90
2023-03-18T18:36:28.196Z,165.10
2023-03-18T18:38:56.747Z,184.20
2023-03-18T18:41:24.572Z,188.70
2023-03-18T18:43:52.774Z,189.10
2023-03-18T18:46:21.967Z,162.60
2023-03-18T18:48:50.181Z,150.60
2023-03-18T18:51:20.229Z,157.80
2023-03-18T18:53:49.660Z,143.50
2023-03-18T18:56:23.597Z,135.20
2023-03-18T18:58:52.888Z,125.40
2023-03-18T19:01:21.165Z,138.80
2023-03-18T19:03:50.009Z,146.40
2023-03-18T19:06:26.146Z,167.40
2023-03-18T19:08:56.664Z,161.80
2023-03-18T19:11:26.268Z,115.80
2023-03-18T19:13:55.340Z,129.10
2023-03-18T19:16:33.503Z,120.50
2023-03-18T19:19:01.819Z,158.90
2023-03-18T19:21:29.620Z,159.30
2023-03-18T19:23:58.376Z,195.50
2023-03-18T19:26:27.236Z,160.60
2023-03-18T19:28:59.486Z,144.10
2023-03-18T19:31:32.235Z,139.40
2023-03-18T19:34:00.507Z,132.50
2023-03-18T19:36:37.680Z,170.80
2023-03-18T19:39:06.180Z,196.50
2023-03-18T19:41:33.966Z,266.90
2023-03-18T19:44:06.294Z,254.20
2023-03-18T19:46:40.837Z,223.40
2023-03-18T19:49:11.810Z,225.20
2023-03-18T19:51:39.665Z,223.50
2023-03-18T19:54:33.831Z,262.40
2023-03-18T19:57:03.972Z,238.20
2023-03-18T19:59:38.738Z,232.40
2023-03-18T20:02:23.629Z,208.70
2023-03-18T20:04:54.426Z,299.80
2023-03-18T20:07:24.800Z,233.20
2023-03-18T20:09:53.945Z,245.60
2023-03-18T20:12:24.222Z,258.50
2023-03-18T20:14:52.540Z,252.60
2023-03-18T20:17:36.106Z,269.80
2023-03-18T20:20:05.319Z,262.90
2023-03-18T20:22:36.615Z,277.60
2023-03-18T20:25:06.073Z,270.80
2023-03-18T20:27:34.380Z,266.00
2023-03-18T20:30:02.349Z,234.30
2023-03-18T20:32:30.231Z,243.20
2023-03-18T20:34:58.141Z,243.10
2023-03-18T20:37:36.179Z,242.80
2023-03-18T20:40:07.286Z,250.00
2023-03-18T20:42:35.155Z,274.00
2023-03-18T20:45:02.963Z,316.30
2023-03-18T20:47:30.786Z,206.10
2023-03-18T20:49:58.645Z,158.50
2023-03-18T20:52:29.784Z,172.00
2023-03-18T20:54:57.966Z,186.60
2023-03-18T20:57:26.332Z,187.70
2023-03-18T20:59:54.197Z,180.20
2023-03-18T21:02:31.431Z,177.90
2023-03-18T21:05:01.714Z,183.20
2023-03-18T21:07:30.172Z,181.70
2023-03-18T21:09:58.012Z,185.30
2023-03-18T21:12:25.960Z,264.10
2023-03-18T21:14:53.730Z,330.60
2023-03-18T21:17:27.377Z,245.70
2023-03-18T21:20:04.996Z,222.20
2023-03-18T21:22:37.053Z,237.20
2023-03-18T21:25:07.702Z,233.50
2023-03-18T21:27:36.887Z,217.50
2023-03-18T21:30:06.178Z,215.00
2023-03-18T21:32:34.463Z,235.90
2023-03-18T21:35:02.438Z,245.90
2023-03-18T21:37:30.604Z,228.60
2023-03-18T21:39:58.460Z,237.80
2023-03-18T21:42:29.399Z,252.10
2023-03-18T21:44:57.467Z,244.40
2023-03-18T21:47:27.046Z,287.30
2023-03-18T21:49:54.882Z,276.50
2023-03-18T21:52:29.382Z,281.20
2023-03-18T21:54:58.385Z,267.10
2023-03-18T21:57:26.702Z,266.70
2023-03-18T21:59:54.557Z,349.90
2023-03-18T22:02:37.631Z,301.20
2023-03-18T22:05:18.211Z,231.30
2023-03-18T22:07:46.872Z,250.20
2023-03-18T22:10:16.862Z,275.70
2023-03-18T22:12:45.337Z,284.30
2023-03-18T22:15:34.059Z,353.50
2023-03-18T22:18:02.834Z,291.10
2023-03-18T22:20:30.685Z,360.80
2023-03-18T22:22:58.459Z,334.90
2023-03-18T22:25:39.126Z,322.60
2023-03-18T22:28:06.940Z,342.10
2023-03-18T22:30:35.525Z,369.40
2023-03-18T22:33:04.581Z,352.20
2023-03-18T22:35:33.003Z,331.70
2023-03-18T22:38:01.088Z,319.10
2023-03-18T22:40:31.609Z,295.40
2023-03-18T22:43:01.653Z,295.90
2023-03-18T22:45:32.218Z,282.90
2023-03-18T22:48:03.033Z,292.30
2023-03-18T22:50:33.947Z,285.60
2023-03-18T22:53:05.995Z,281.90
2023-03-18T22:55:39.873Z,270.30
2023-03-18T22:58:18.995Z,263.40
2023-03-18T23:00:47.914Z,264.60
2023-03-18T23:03:18.741Z,243.80
2023-03-18T23:05:48.566Z,259.60
2023-03-18T23:08:16.534Z,267.30
2023-03-18T23:10:45.004Z,272.50
2023-03-18T23:13:34.500Z,288.50
2023-03-18T23:16:05.284Z,281.70
2023-03-18T23:18:33.527Z,282.50
2023-03-18T23:21:01.834Z,286.00
2023-03-18T23:23:30.488Z,299.50
2023-03-18T23:25:58.423Z,290.30
2023-03-18T23:28:26.556Z,269.40
2023-03-18T23:30:54.524Z,295.30
2023-03-18T23:33:22.291Z,270.80
2023-03-18T23:35:50.312Z,262.60
2023-03-18T23:38:18.172Z,311.70
2023-03-18T23:40:46.034Z,300.60
2023-03-18T23:43:14.010Z,321.80
2023-03-18T23:45:42.033Z,327.30
2023-03-18T23:48:09.991Z,290.00
2023-03-18T23:50:37.850Z,307.20
2023-03-18T23:53:05.758Z,319.20
2023-03-18T23:55:35.228Z,329.60
2023-03-18T23:58:04.090Z,299.70
